createdAt,value
2019-03-27T00:01:46.546Z,0
2019-03-27T00:02:46.457Z,0
2019-03-27T00:03:46.387Z,0
2019-03-27T00:04:46.475Z,0
2019-03-27T00:05:46.427Z,0
2019-03-27T00:06:46.480Z,0
2019-03-27T00:07:46.473Z,0
2019-03-27T00:08:46.412Z,0
2019-03-27T00:09:46.422Z,0
2019-03-27T00:10:46.510Z,0
2019-03-27T00:11:46.493Z,0
2019-03-27T00:12:46.486Z,0
2019-03-27T00:13:46.441Z,0
2019-03-27T00:14:46.470Z,0
2019-03-27T00:15:46.326Z,0
2019-03-27T00:16:46.342Z,0
2019-03-27T00:17:46.400Z,0
2019-03-27T00:18:46.449Z,0
2019-03-27T00:19:46.354Z,0
2019-03-27T00:20:46.354Z,0
2019-03-27T00:21:46.394Z,0
2019-03-27T00:22:46.347Z,0
2019-03-27T00:23:46.432Z,0
2019-03-27T00:24:46.485Z,0
2019-03-27T00:25:46.427Z,0
2019-03-27T00:26:46.492Z,0
2019-03-27T00:27:46.419Z,0
2019-03-27T00:28:46.484Z,0
2019-03-27T00:29:46.489Z,0
2019-03-27T00:30:46.417Z,0
2019-03-27T00:31:46.487Z,0
2019-03-27T00:32:46.501Z,0
2019-03-27T00:33:46.498Z,0
2019-03-27T00:34:46.485Z,0
2019-03-27T00:35:46.492Z,0
2019-03-27T00:36:46.429Z,0
2019-03-27T00:37:46.496Z,0
2019-03-27T00:38:46.506Z,0
2019-03-27T00:39:46.421Z,0
2019-03-27T00:40:46.492Z,0
2019-03-27T00:41:46.492Z,0
2019-03-27T00:42:46.439Z,0
2019-03-27T00:43:46.503Z,0
2019-03-27T00:44:46.362Z,0
2019-03-27T00:45:46.365Z,0
2019-03-27T00:46:46.480Z,0
2019-03-27T00:47:46.483Z,0
2019-03-27T00:48:46.481Z,0
2019-03-27T00:49:46.486Z,0
2019-03-27T00:50:46.488Z,0
2019-03-27T00:51:46.486Z,0
2019-03-27T00:52:46.432Z,0
2019-03-27T00:53:46.461Z,0
2019-03-27T00:54:46.512Z,0
2019-03-27T00:55:46.503Z,0
2019-03-27T00:56:46.447Z,0
2019-03-27T00:57:46.504Z,0
2019-03-27T00:58:46.504Z,0
2019-03-27T00:59:46.450Z,0
2019-03-27T01:00:46.454Z,0
2019-03-27T01:01:46.435Z,0
2019-03-27T01:02:46.506Z,0
2019-03-27T01:03:46.442Z,0
2019-03-27T01:04:46.511Z,0
2019-03-27T01:05:46.458Z,0
2019-03-27T01:06:46.442Z,0
2019-03-27T01:07:46.511Z,0
2019-03-27T01:08:46.517Z,0
2019-03-27T01:09:46.459Z,0
2019-03-27T01:10:46.464Z,0
2019-03-27T01:11:46.457Z,0
2019-03-27T01:12:46.538Z,0
2019-03-27T01:13:46.543Z,0
2019-03-27T01:14:46.522Z,0
2019-03-27T01:15:46.463Z,0
2019-03-27T01:16:46.456Z,0
2019-03-27T01:17:46.459Z,0
2019-03-27T01:18:46.464Z,0
2019-03-27T01:19:46.520Z,0
2019-03-27T01:20:46.464Z,0
2019-03-27T01:21:46.470Z,0
2019-03-27T01:22:46.454Z,0
2019-03-27T01:23:46.524Z,0
2019-03-27T01:24:46.418Z,0
2019-03-27T01:25:46.475Z,0
2019-03-27T01:26:46.472Z,0
2019-03-27T01:27:46.540Z,0
2019-03-27T01:28:46.547Z,0
2019-03-27T01:29:46.469Z,0
2019-03-27T01:30:46.537Z,0
2019-03-27T01:31:46.556Z,0
2019-03-27T01:32:46.549Z,0
2019-03-27T01:33:46.496Z,0
2019-03-27T01:34:46.461Z,0
2019-03-27T01:35:46.542Z,0
2019-03-27T01:36:46.535Z,0
2019-03-27T01:37:46.478Z,0
2019-03-27T01:38:46.541Z,0
2019-03-27T01:39:46.535Z,0
2019-03-27T01:40:46.537Z,0
2019-03-27T01:41:46.479Z,0
2019-03-27T01:42:46.583Z,0
2019-03-27T01:43:46.475Z,0
2019-03-27T01:44:46.528Z,0
2019-03-27T01:45:52.928Z,0
2019-03-27T01:46:46.458Z,0
2019-03-27T01:47:46.434Z,0
2019-03-27T01:48:46.435Z,0
2019-03-27T01:49:46.480Z,0
2019-03-27T01:50:46.481Z,0
2019-03-27T01:51:46.434Z,0
2019-03-27T01:52:46.414Z,0
2019-03-27T01:53:46.468Z,0
2019-03-27T01:54:46.482Z,0
2019-03-27T01:55:46.476Z,0
2019-03-27T01:56:46.547Z,0
2019-03-27T01:57:46.547Z,0
2019-03-27T01:58:46.496Z,0
2019-03-27T01:59:46.498Z,0
2019-03-27T02:00:46.492Z,0
2019-03-27T02:01:46.553Z,0
2019-03-27T02:02:46.489Z,0
2019-03-27T02:03:46.545Z,0
2019-03-27T02:04:46.541Z,0
2019-03-27T02:05:46.482Z,0
2019-03-27T02:06:46.475Z,0
2019-03-27T02:07:46.543Z,0
2019-03-27T02:08:46.472Z,0
2019-03-27T02:09:46.473Z,0
2019-03-27T02:10:46.561Z,0
2019-03-27T02:11:46.479Z,0
2019-03-27T02:12:46.551Z,0
2019-03-27T02:13:46.512Z,0
2019-03-27T02:14:46.547Z,0
2019-03-27T02:15:46.462Z,0
2019-03-27T02:16:46.548Z,0
2019-03-27T02:17:46.512Z,0
2019-03-27T02:18:46.549Z,0
2019-03-27T02:19:46.503Z,0
2019-03-27T02:20:46.550Z,0
2019-03-27T02:21:46.549Z,0
2019-03-27T02:22:46.486Z,0
2019-03-27T02:23:46.438Z,0
2019-03-27T02:24:46.512Z,0
2019-03-27T02:25:46.505Z,0
2019-03-27T02:26:46.512Z,0
2019-03-27T02:27:46.496Z,0
2019-03-27T02:28:46.499Z,0
2019-03-27T02:29:46.571Z,0
2019-03-27T02:30:46.582Z,0
2019-03-27T02:31:46.563Z,0
2019-03-27T02:32:46.535Z,0
2019-03-27T02:33:46.508Z,0
2019-03-27T02:34:46.521Z,0
2019-03-27T02:35:46.528Z,0
2019-03-27T02:36:46.476Z,0
2019-03-27T02:37:46.541Z,0
2019-03-27T02:38:46.605Z,0
2019-03-27T02:39:46.516Z,0
2019-03-27T02:40:46.593Z,0
2019-03-27T02:41:46.592Z,0
2019-03-27T02:42:46.599Z,0
2019-03-27T02:43:46.554Z,0
2019-03-27T02:44:46.534Z,0
2019-03-27T02:45:46.514Z,0
2019-03-27T02:46:46.526Z,0
2019-03-27T02:47:46.526Z,0
2019-03-27T02:48:46.596Z,0
2019-03-27T02:49:46.544Z,0
2019-03-27T02:50:46.595Z,0
2019-03-27T02:51:46.528Z,0
2019-03-27T02:52:46.527Z,0
2019-03-27T02:53:46.591Z,0
2019-03-27T02:54:46.519Z,0
2019-03-27T02:55:46.469Z,0
2019-03-27T02:56:46.543Z,0
2019-03-27T02:57:46.491Z,0
2019-03-27T02:58:46.534Z,0
2019-03-27T02:59:46.576Z,0
2019-03-27T03:00:46.439Z,0
2019-03-27T03:01:48.172Z,0
2019-03-27T03:02:46.558Z,0
2019-03-27T03:03:46.493Z,0
2019-03-27T03:04:46.480Z,0
2019-03-27T03:05:46.774Z,0
2019-03-27T03:06:46.626Z,0
2019-03-27T03:07:46.559Z,0
2019-03-27T03:08:46.493Z,0
2019-03-27T03:09:46.555Z,0
2019-03-27T03:10:46.579Z,0
2019-03-27T03:11:46.549Z,0
2019-03-27T03:12:46.616Z,0
2019-03-27T03:13:46.594Z,0
2019-03-27T03:14:46.497Z,0
2019-03-27T03:15:46.563Z,0
2019-03-27T03:16:46.613Z,0
2019-03-27T03:17:46.583Z,0
2019-03-27T03:18:46.554Z,0
2019-03-27T03:19:46.557Z,0
2019-03-27T03:20:46.494Z,0
2019-03-27T03:21:46.556Z,0
2019-03-27T03:22:46.631Z,0
2019-03-27T03:23:46.565Z,0
2019-03-27T03:24:46.616Z,0
2019-03-27T03:25:46.553Z,0
2019-03-27T03:26:50.497Z,0
2019-03-27T03:27:46.610Z,0
2019-03-27T03:28:46.616Z,0
2019-03-27T03:29:46.545Z,0
2019-03-27T03:30:46.625Z,0
2019-03-27T03:31:46.626Z,0
2019-03-27T03:32:46.625Z,0
2019-03-27T03:33:46.616Z,0
2019-03-27T03:34:46.690Z,0
2019-03-27T03:35:46.597Z,0
2019-03-27T03:36:46.609Z,0
2019-03-27T03:37:46.585Z,0
2019-03-27T03:38:46.558Z,0
2019-03-27T03:39:46.606Z,0
2019-03-27T03:40:46.646Z,0
2019-03-27T03:41:46.599Z,0
2019-03-27T03:42:46.606Z,0
2019-03-27T03:43:46.589Z,0
2019-03-27T03:44:46.600Z,0
2019-03-27T03:45:46.574Z,0
2019-03-27T03:46:58.814Z,0
2019-03-27T03:47:46.635Z,0
2019-03-27T03:48:46.565Z,0
2019-03-27T03:49:46.518Z,0
2019-03-27T03:50:46.674Z,0
2019-03-27T03:51:46.636Z,0
2019-03-27T03:52:46.575Z,0
2019-03-27T03:53:46.646Z,0
2019-03-27T03:54:46.635Z,0
2019-03-27T03:55:46.666Z,0
2019-03-27T03:56:46.595Z,0
2019-03-27T03:57:46.828Z,0
2019-03-27T03:58:46.648Z,0
2019-03-27T03:59:46.584Z,0
2019-03-27T04:00:46.661Z,0
2019-03-27T04:01:46.587Z,0
2019-03-27T04:02:46.630Z,0
2019-03-27T04:03:46.588Z,0
2019-03-27T04:04:46.599Z,0
2019-03-27T04:05:46.642Z,0
2019-03-27T04:06:46.646Z,0
2019-03-27T04:07:46.534Z,0
2019-03-27T04:08:46.588Z,0
2019-03-27T04:09:46.673Z,0
2019-03-27T04:10:46.643Z,0
2019-03-27T04:11:46.572Z,0
2019-03-27T04:12:46.594Z,0
2019-03-27T04:13:46.647Z,0
2019-03-27T04:14:46.660Z,0
2019-03-27T04:15:46.597Z,0
2019-03-27T04:16:46.650Z,0
2019-03-27T04:17:46.659Z,0
2019-03-27T04:18:46.651Z,0
2019-03-27T04:19:46.591Z,0
2019-03-27T04:20:46.599Z,0
2019-03-27T04:21:46.657Z,0
2019-03-27T04:22:46.650Z,0
2019-03-27T04:23:46.657Z,0
2019-03-27T04:24:46.546Z,0
2019-03-27T04:26:07.926Z,0
2019-03-27T04:26:46.592Z,0
2019-03-27T04:27:46.585Z,0
2019-03-27T04:28:46.661Z,0
2019-03-27T04:29:46.628Z,0
2019-03-27T04:30:46.601Z,0
2019-03-27T04:31:46.586Z,0
2019-03-27T04:32:46.625Z,0
2019-03-27T04:33:46.658Z,0
2019-03-27T04:34:47.417Z,0
2019-03-27T04:35:46.725Z,0
2019-03-27T04:36:46.609Z,0
2019-03-27T04:37:46.594Z,0
2019-03-27T04:38:46.658Z,0
2019-03-27T04:39:46.662Z,0
2019-03-27T04:40:46.593Z,0
2019-03-27T04:41:46.606Z,0
2019-03-27T04:42:46.563Z,0
2019-03-27T04:43:46.595Z,0
2019-03-27T04:44:46.662Z,0
2019-03-27T04:45:46.585Z,0
2019-03-27T04:46:46.666Z,0
2019-03-27T04:47:46.592Z,0
2019-03-27T04:48:46.662Z,0
2019-03-27T04:49:46.590Z,0
2019-03-27T04:50:46.662Z,0
2019-03-27T04:51:46.658Z,0
2019-03-27T04:52:46.659Z,0
2019-03-27T04:53:46.597Z,0
2019-03-27T04:54:46.664Z,0
2019-03-27T04:55:46.618Z,0
2019-03-27T04:56:46.673Z,0
2019-03-27T04:57:46.632Z,0
2019-03-27T04:58:46.686Z,0
2019-03-27T04:59:46.688Z,0
2019-03-27T05:00:46.687Z,0
2019-03-27T05:01:46.606Z,0
2019-03-27T05:02:46.679Z,0
2019-03-27T05:03:46.694Z,0
2019-03-27T05:04:46.615Z,0
2019-03-27T05:05:46.670Z,0
2019-03-27T05:06:46.599Z,0
2019-03-27T05:07:46.598Z,0
2019-03-27T05:08:46.612Z,0
2019-03-27T05:09:46.613Z,0
2019-03-27T05:10:46.674Z,0
2019-03-27T05:11:46.613Z,0
2019-03-27T05:12:46.611Z,0
2019-03-27T05:13:46.676Z,0
2019-03-27T05:14:46.723Z,0
2019-03-27T05:15:46.689Z,0
2019-03-27T05:16:46.629Z,0
2019-03-27T05:17:46.758Z,0
2019-03-27T05:18:46.697Z,0
2019-03-27T05:19:46.641Z,0
2019-03-27T05:20:46.708Z,0
2019-03-27T05:21:46.643Z,0
2019-03-27T05:22:46.652Z,0
2019-03-27T05:23:46.705Z,0
2019-03-27T05:24:46.701Z,0
2019-03-27T05:25:46.638Z,0
2019-03-27T05:26:46.626Z,0
2019-03-27T05:27:46.692Z,0
2019-03-27T05:28:46.697Z,0
2019-03-27T05:29:46.693Z,0
2019-03-27T05:30:46.701Z,0
2019-03-27T05:31:46.633Z,0
2019-03-27T05:32:46.696Z,0
2019-03-27T05:33:46.629Z,0
2019-03-27T05:34:46.759Z,0
2019-03-27T05:35:46.701Z,0
2019-03-27T05:36:46.678Z,0
2019-03-27T05:37:46.700Z,0
2019-03-27T05:38:46.662Z,0
2019-03-27T05:39:46.705Z,0
2019-03-27T05:40:46.632Z,0
2019-03-27T05:41:46.665Z,0
2019-03-27T05:42:59.734Z,0
2019-03-27T05:43:46.633Z,0
2019-03-27T05:44:46.708Z,0
2019-03-27T05:45:46.643Z,0
2019-03-27T05:46:46.683Z,0
2019-03-27T05:47:58.958Z,16
2019-03-27T05:48:46.624Z,14
2019-03-27T05:49:46.639Z,17
2019-03-27T05:50:46.694Z,17
2019-03-27T05:51:46.611Z,18
2019-03-27T05:52:46.703Z,19
2019-03-27T05:53:46.695Z,20
2019-03-27T05:54:46.633Z,23
2019-03-27T05:55:46.707Z,26
2019-03-27T05:56:46.633Z,28
2019-03-27T05:57:46.641Z,31
2019-03-27T05:58:46.711Z,35
2019-03-27T05:59:46.711Z,35
2019-03-27T06:00:46.716Z,32
2019-03-27T06:01:46.635Z,28
2019-03-27T06:02:46.715Z,26
2019-03-27T06:03:46.722Z,27
2019-03-27T06:04:46.741Z,28
2019-03-27T06:05:46.640Z,28
2019-03-27T06:06:46.712Z,28
2019-03-27T06:07:46.650Z,26
2019-03-27T06:08:46.716Z,24
2019-03-27T06:09:46.648Z,25
2019-03-27T06:10:46.718Z,29
2019-03-27T06:11:46.658Z,33
2019-03-27T06:12:46.779Z,33
2019-03-27T06:13:46.716Z,35
2019-03-27T06:14:46.656Z,36
2019-03-27T06:15:46.720Z,42
2019-03-27T06:16:46.654Z,43
2019-03-27T06:17:46.720Z,45
2019-03-27T06:18:46.648Z,45
2019-03-27T06:19:46.722Z,43
2019-03-27T06:20:46.814Z,43
2019-03-27T06:21:46.648Z,43
2019-03-27T06:22:46.653Z,44
2019-03-27T06:23:46.725Z,45
2019-03-27T06:24:46.654Z,47
2019-03-27T06:25:46.741Z,50
2019-03-27T06:26:46.685Z,54
2019-03-27T06:27:46.662Z,60
2019-03-27T06:28:46.668Z,62
2019-03-27T06:29:46.664Z,64
2019-03-27T06:30:46.749Z,64
2019-03-27T06:31:46.667Z,64
2019-03-27T06:32:46.668Z,63
2019-03-27T06:33:46.739Z,60
2019-03-27T06:34:46.669Z,59
2019-03-27T06:35:46.719Z,58
2019-03-27T06:36:46.723Z,62
2019-03-27T06:37:46.733Z,62
2019-03-27T06:38:46.663Z,64
2019-03-27T06:39:46.613Z,67
2019-03-27T06:40:46.612Z,69
2019-03-27T06:41:46.730Z,72
2019-03-27T06:42:46.678Z,76
2019-03-27T06:43:46.724Z,82
2019-03-27T06:44:46.705Z,92
2019-03-27T06:45:46.682Z,94
2019-03-27T06:46:46.753Z,98
2019-03-27T06:47:46.688Z,104
2019-03-27T06:48:46.754Z,106
2019-03-27T06:49:46.690Z,104
2019-03-27T06:50:46.696Z,107
2019-03-27T06:51:46.683Z,110
2019-03-27T06:52:46.770Z,113
2019-03-27T06:53:46.758Z,117
2019-03-27T06:54:46.688Z,122
2019-03-27T06:55:46.698Z,122
2019-03-27T06:56:46.705Z,125
2019-03-27T06:57:46.672Z,128
2019-03-27T06:58:54.382Z,129
2019-03-27T06:59:46.688Z,130
2019-03-27T07:00:46.765Z,133
2019-03-27T07:01:46.703Z,145
2019-03-27T07:02:46.770Z,151
2019-03-27T07:03:46.702Z,153
2019-03-27T07:04:46.766Z,159
2019-03-27T07:05:46.678Z,163
2019-03-27T07:06:46.753Z,169
2019-03-27T07:07:46.797Z,177
2019-03-27T07:08:46.761Z,186
2019-03-27T07:09:46.733Z,185
2019-03-27T07:10:46.647Z,188
2019-03-27T07:11:46.686Z,185
2019-03-27T07:12:46.845Z,179
2019-03-27T07:13:46.760Z,177
2019-03-27T07:14:46.686Z,176
2019-03-27T07:15:46.741Z,179
2019-03-27T07:16:46.775Z,189
2019-03-27T07:17:46.707Z,194
2019-03-27T07:18:46.778Z,205
2019-03-27T07:19:46.715Z,208
2019-03-27T07:20:46.706Z,231
2019-03-27T07:21:46.781Z,258
2019-03-27T07:22:46.707Z,253
2019-03-27T07:23:46.708Z,258
2019-03-27T07:24:46.784Z,244
2019-03-27T07:25:46.781Z,257
2019-03-27T07:26:46.702Z,226
2019-03-27T07:27:46.705Z,225
2019-03-27T07:28:46.774Z,221
2019-03-27T07:29:46.773Z,193
2019-03-27T07:30:46.703Z,180
2019-03-27T07:31:46.773Z,173
2019-03-27T07:32:46.704Z,170
2019-03-27T07:33:46.774Z,178
2019-03-27T07:34:46.701Z,184
2019-03-27T07:35:46.735Z,194
2019-03-27T07:36:46.739Z,191
2019-03-27T07:37:46.785Z,184
2019-03-27T07:38:46.788Z,186
2019-03-27T07:39:46.789Z,198
2019-03-27T07:40:46.725Z,201
2019-03-27T07:41:46.807Z,206
2019-03-27T07:42:46.805Z,208
2019-03-27T07:43:46.723Z,209
2019-03-27T07:44:46.821Z,208
2019-03-27T07:45:46.729Z,202
2019-03-27T07:46:46.664Z,205
2019-03-27T07:47:48.210Z,203
2019-03-27T07:48:53.820Z,201
2019-03-27T07:49:46.689Z,206
2019-03-27T07:50:46.723Z,203
2019-03-27T07:51:46.769Z,205
2019-03-27T07:52:46.720Z,201
2019-03-27T07:53:46.702Z,199
2019-03-27T07:54:46.668Z,202
2019-03-27T07:55:46.727Z,205
2019-03-27T07:56:46.799Z,197
2019-03-27T07:57:46.731Z,191
2019-03-27T07:58:46.801Z,190
2019-03-27T07:59:46.871Z,185
2019-03-27T08:00:46.811Z,184
2019-03-27T08:01:46.736Z,182
2019-03-27T08:02:46.751Z,180
2019-03-27T08:03:46.737Z,186
2019-03-27T08:04:46.809Z,187
2019-03-27T08:05:46.655Z,193
2019-03-27T08:06:46.679Z,206
2019-03-27T08:07:46.651Z,205
2019-03-27T08:08:46.779Z,196
2019-03-27T08:09:46.723Z,191
2019-03-27T08:10:46.727Z,204
2019-03-27T08:11:46.684Z,220
2019-03-27T08:12:46.657Z,228
2019-03-27T08:13:46.735Z,228
2019-03-27T08:14:46.714Z,229
2019-03-27T08:15:46.754Z,228
2019-03-27T08:16:46.814Z,228
2019-03-27T08:17:46.748Z,233
2019-03-27T08:18:46.746Z,243
2019-03-27T08:19:46.824Z,247
2019-03-27T08:20:46.747Z,238
2019-03-27T08:21:46.819Z,240
2019-03-27T08:22:46.756Z,250
2019-03-27T08:23:46.822Z,254
2019-03-27T08:24:46.843Z,251
2019-03-27T08:25:46.748Z,253
2019-03-27T08:26:46.828Z,256
2019-03-27T08:27:46.830Z,258
2019-03-27T08:28:46.827Z,277
2019-03-27T08:29:46.831Z,282
2019-03-27T08:30:46.759Z,285
2019-03-27T08:31:46.824Z,279
2019-03-27T08:32:46.944Z,268
2019-03-27T08:33:46.825Z,254
2019-03-27T08:34:46.830Z,253
2019-03-27T08:35:46.807Z,252
2019-03-27T08:36:46.736Z,250
2019-03-27T08:37:46.785Z,243
2019-03-27T08:38:46.719Z,239
2019-03-27T08:39:46.821Z,233
2019-03-27T08:40:46.729Z,227
2019-03-27T08:41:46.760Z,230
2019-03-27T08:42:46.817Z,239
2019-03-27T08:43:46.817Z,257
2019-03-27T08:44:46.703Z,273
2019-03-27T08:45:46.725Z,279
2019-03-27T08:46:46.853Z,290
2019-03-27T08:47:46.840Z,290
2019-03-27T08:48:46.768Z,285
2019-03-27T08:49:46.837Z,285
2019-03-27T08:50:46.837Z,302
2019-03-27T08:51:46.846Z,303
2019-03-27T08:52:46.781Z,309
2019-03-27T08:53:46.770Z,331
2019-03-27T08:54:46.775Z,334
2019-03-27T08:55:46.733Z,322
2019-03-27T08:56:46.812Z,305
2019-03-27T08:57:46.776Z,293
2019-03-27T08:58:46.772Z,284
2019-03-27T08:59:46.781Z,297
2019-03-27T09:00:46.733Z,316
2019-03-27T09:01:46.788Z,335
2019-03-27T09:02:46.783Z,344
2019-03-27T09:03:46.775Z,331
2019-03-27T09:04:46.739Z,320
2019-03-27T09:05:46.781Z,313
2019-03-27T09:06:46.774Z,307
2019-03-27T09:07:46.823Z,319
2019-03-27T09:08:46.846Z,307
2019-03-27T09:09:46.772Z,294
2019-03-27T09:10:46.841Z,283
2019-03-27T09:11:46.833Z,283
2019-03-27T09:12:46.773Z,298
2019-03-27T09:13:46.753Z,296
2019-03-27T09:14:46.753Z,302
2019-03-27T09:15:46.794Z,302
2019-03-27T09:16:46.862Z,296
2019-03-27T09:17:46.860Z,209
2019-03-27T09:18:46.806Z,248
2019-03-27T09:19:46.790Z,227
2019-03-27T09:20:46.871Z,215
2019-03-27T09:21:46.862Z,214
2019-03-27T09:22:46.865Z,222
2019-03-27T09:23:46.809Z,243
2019-03-27T09:24:46.874Z,259
2019-03-27T09:25:46.863Z,272
2019-03-27T09:26:46.826Z,279
2019-03-27T09:27:46.869Z,294
2019-03-27T09:28:46.798Z,330
2019-03-27T09:29:46.858Z,305
2019-03-27T09:30:46.847Z,326
2019-03-27T09:31:46.867Z,349
2019-03-27T09:32:46.869Z,335
2019-03-27T09:33:46.870Z,318
2019-03-27T09:34:46.858Z,313
2019-03-27T09:35:46.828Z,313
2019-03-27T09:36:46.804Z,352
2019-03-27T09:37:46.869Z,283
2019-03-27T09:38:46.764Z,278
2019-03-27T09:39:46.873Z,289
2019-03-27T09:40:46.806Z,295
2019-03-27T09:41:46.803Z,308
2019-03-27T09:42:46.884Z,338
2019-03-27T09:43:46.876Z,412
2019-03-27T09:44:46.877Z,1000
2019-03-27T09:45:46.828Z,834
2019-03-27T09:46:46.795Z,345
2019-03-27T09:47:46.868Z,314
2019-03-27T09:48:46.871Z,347
2019-03-27T09:49:49.954Z,317
2019-03-27T09:50:46.905Z,312
2019-03-27T09:51:46.806Z,340
2019-03-27T09:52:46.798Z,437
2019-03-27T09:53:46.801Z,577
2019-03-27T09:54:46.874Z,533
2019-03-27T09:55:46.801Z,695
2019-03-27T09:56:46.829Z,336
2019-03-27T09:57:46.818Z,289
2019-03-27T09:58:46.893Z,263
2019-03-27T09:59:46.887Z,243
2019-03-27T10:00:46.930Z,209
2019-03-27T10:01:46.832Z,212
2019-03-27T10:02:46.903Z,258
2019-03-27T10:03:46.854Z,316
2019-03-27T10:04:46.825Z,460
2019-03-27T10:05:46.892Z,980
2019-03-27T10:06:46.884Z,764
2019-03-27T10:07:46.816Z,391
2019-03-27T10:08:46.885Z,346
2019-03-27T10:09:50.121Z,335
2019-03-27T10:10:46.898Z,734
2019-03-27T10:11:46.812Z,391
2019-03-27T10:12:46.885Z,438
2019-03-27T10:13:46.827Z,1074
2019-03-27T10:14:47.751Z,797
2019-03-27T10:15:46.915Z,780
2019-03-27T10:16:46.877Z,402
2019-03-27T10:17:46.788Z,347
2019-03-27T10:18:47.620Z,670
2019-03-27T10:19:46.820Z,276
2019-03-27T10:20:46.768Z,1004
2019-03-27T10:21:46.802Z,959
2019-03-27T10:22:46.858Z,388
2019-03-27T10:23:46.808Z,323
2019-03-27T10:24:46.773Z,764
2019-03-27T10:25:46.927Z,772
2019-03-27T10:26:46.837Z,452
2019-03-27T10:27:46.907Z,386
2019-03-27T10:28:46.911Z,360
2019-03-27T10:29:46.918Z,420
2019-03-27T10:30:46.837Z,1048
2019-03-27T10:31:46.842Z,1119
2019-03-27T10:32:46.842Z,820
2019-03-27T10:33:46.912Z,380
2019-03-27T10:34:46.923Z,454
2019-03-27T10:35:46.846Z,365
2019-03-27T10:36:46.886Z,367
2019-03-27T10:37:46.881Z,426
2019-03-27T10:38:46.800Z,1047
2019-03-27T10:39:46.906Z,941
2019-03-27T10:40:46.908Z,888
2019-03-27T10:41:46.810Z,1048
2019-03-27T10:42:46.785Z,550
2019-03-27T10:43:46.815Z,423
2019-03-27T10:44:46.778Z,569
2019-03-27T10:45:46.840Z,699
2019-03-27T10:46:46.928Z,691
2019-03-27T10:47:46.879Z,773
2019-03-27T10:48:52.954Z,795
2019-03-27T10:49:46.914Z,656
2019-03-27T10:50:46.883Z,667
2019-03-27T10:51:46.877Z,695
2019-03-27T10:52:46.927Z,704
2019-03-27T10:53:46.931Z,784
2019-03-27T10:54:46.928Z,830
2019-03-27T10:55:46.983Z,958
2019-03-27T10:56:46.899Z,944
2019-03-27T10:57:46.785Z,903
2019-03-27T10:58:46.881Z,969
2019-03-27T10:59:46.787Z,1024
2019-03-27T11:00:46.862Z,998
2019-03-27T11:01:46.908Z,1043
2019-03-27T11:02:46.882Z,975
2019-03-27T11:03:46.847Z,1110
2019-03-27T11:04:46.880Z,868
2019-03-27T11:05:46.886Z,953
2019-03-27T11:06:46.933Z,753
2019-03-27T11:07:46.860Z,1044
2019-03-27T11:08:46.926Z,1042
2019-03-27T11:09:46.929Z,1070
2019-03-27T11:10:46.894Z,372
2019-03-27T11:11:46.940Z,845
2019-03-27T11:12:46.862Z,676
2019-03-27T11:13:46.933Z,356
2019-03-27T11:14:46.842Z,879
2019-03-27T11:15:46.977Z,932
2019-03-27T11:16:46.946Z,869
2019-03-27T11:17:46.882Z,949
2019-03-27T11:18:46.950Z,860
2019-03-27T11:19:46.876Z,595
2019-03-27T11:20:46.874Z,548
2019-03-27T11:21:46.954Z,615
2019-03-27T11:23:46.880Z,443
2019-03-27T11:24:46.982Z,672
2019-03-27T11:25:46.951Z,651
2019-03-27T11:26:46.850Z,784
2019-03-27T11:27:46.852Z,798
2019-03-27T11:28:46.867Z,1049
2019-03-27T11:29:46.855Z,926
2019-03-27T11:30:48.568Z,895
2019-03-27T11:31:46.971Z,867
2019-03-27T11:32:46.939Z,798
2019-03-27T11:33:46.948Z,697
2019-03-27T11:34:46.873Z,689
2019-03-27T11:35:46.868Z,729
2019-03-27T11:36:46.827Z,765
2019-03-27T11:37:46.938Z,659
2019-03-27T11:38:46.862Z,694
2019-03-27T11:39:46.902Z,861
2019-03-27T11:40:46.952Z,898
2019-03-27T11:41:46.875Z,892
2019-03-27T11:42:46.921Z,879
2019-03-27T11:43:54.627Z,930
2019-03-27T11:44:46.959Z,783
2019-03-27T11:45:48.749Z,958
2019-03-27T11:46:46.924Z,990
2019-03-27T11:47:46.834Z,718
2019-03-27T11:48:46.961Z,804
2019-03-27T11:49:46.902Z,643
2019-03-27T11:50:46.842Z,675
2019-03-27T11:51:46.853Z,670
2019-03-27T11:52:46.957Z,648
2019-03-27T11:53:46.855Z,592
2019-03-27T11:54:46.832Z,557
2019-03-27T11:55:46.945Z,545
2019-03-27T11:56:47.014Z,532
2019-03-27T11:57:46.898Z,733
2019-03-27T11:58:46.902Z,675
2019-03-27T11:59:53.943Z,554
2019-03-27T12:00:54.386Z,511
2019-03-27T12:01:46.900Z,507
2019-03-27T12:02:46.973Z,562
2019-03-27T12:03:46.977Z,545
2019-03-27T12:04:46.979Z,486
2019-03-27T12:05:46.909Z,484
2019-03-27T12:06:46.983Z,452
2019-03-27T12:07:46.910Z,439
2019-03-27T12:08:46.907Z,431
2019-03-27T12:09:46.912Z,418
2019-03-27T12:10:46.976Z,427
2019-03-27T12:11:46.992Z,477
2019-03-27T12:12:48.327Z,561
2019-03-27T12:13:46.983Z,600
2019-03-27T12:14:46.983Z,580
2019-03-27T12:15:46.980Z,552
2019-03-27T12:16:49.843Z,519
2019-03-27T12:17:46.910Z,475
2019-03-27T12:18:46.902Z,525
2019-03-27T12:19:46.937Z,528
2019-03-27T12:20:58.322Z,484
2019-03-27T12:21:46.848Z,484
2019-03-27T12:22:57.301Z,481
2019-03-27T12:23:46.853Z,463
2019-03-27T12:24:46.907Z,540
2019-03-27T12:25:46.939Z,554
2019-03-27T12:26:46.934Z,412
2019-03-27T12:27:46.990Z,422
2019-03-27T12:28:47.001Z,455
2019-03-27T12:29:46.936Z,473
2019-03-27T12:30:46.961Z,514
2019-03-27T12:31:46.994Z,936
2019-03-27T12:32:46.993Z,520
2019-03-27T12:33:47.001Z,573
2019-03-27T12:34:47.001Z,477
2019-03-27T12:35:46.993Z,648
2019-03-27T12:36:46.953Z,587
2019-03-27T12:37:46.995Z,751
2019-03-27T12:38:46.918Z,808
2019-03-27T12:39:46.995Z,581
2019-03-27T12:40:46.921Z,672
2019-03-27T12:41:46.992Z,742
2019-03-27T12:42:46.989Z,869
2019-03-27T12:43:46.907Z,666
2019-03-27T12:44:46.997Z,739
2019-03-27T12:45:46.996Z,685
2019-03-27T12:46:46.952Z,838
2019-03-27T12:47:46.863Z,782
2019-03-27T12:48:46.899Z,658
2019-03-27T12:49:46.940Z,641
2019-03-27T12:50:46.933Z,586
2019-03-27T12:51:46.954Z,568
2019-03-27T12:52:46.961Z,569
2019-03-27T12:53:46.955Z,568
2019-03-27T12:54:46.872Z,539
2019-03-27T12:55:47.061Z,521
2019-03-27T12:56:47.014Z,521
2019-03-27T12:57:46.945Z,538
2019-03-27T12:58:47.011Z,564
2019-03-27T12:59:47.015Z,567
2019-03-27T13:00:47.017Z,547
2019-03-27T13:01:46.950Z,532
2019-03-27T13:02:46.944Z,513
2019-03-27T13:03:47.017Z,515
2019-03-27T13:04:46.951Z,513
2019-03-27T13:05:47.019Z,514
2019-03-27T13:06:46.949Z,507
2019-03-27T13:07:50.141Z,484
2019-03-27T13:08:49.456Z,467
2019-03-27T13:09:46.960Z,440
2019-03-27T13:10:47.022Z,424
2019-03-27T13:11:46.969Z,409
2019-03-27T13:12:46.980Z,399
2019-03-27T13:13:47.023Z,394
2019-03-27T13:14:46.963Z,385
2019-03-27T13:15:46.921Z,391
2019-03-27T13:16:46.954Z,380
2019-03-27T13:17:46.963Z,361
2019-03-27T13:18:47.029Z,343
2019-03-27T13:19:47.034Z,334
2019-03-27T13:20:46.971Z,329
2019-03-27T13:21:46.963Z,332
2019-03-27T13:22:47.016Z,336
2019-03-27T13:23:47.032Z,330
2019-03-27T13:24:47.029Z,322
2019-03-27T13:25:47.038Z,316
2019-03-27T13:26:46.926Z,300
2019-03-27T13:27:47.627Z,304
2019-03-27T13:28:49.155Z,314
2019-03-27T13:29:46.909Z,320
2019-03-27T13:30:46.950Z,327
2019-03-27T13:31:46.891Z,329
2019-03-27T13:32:46.976Z,319
2019-03-27T13:33:50.092Z,310
2019-03-27T13:34:46.897Z,306
2019-03-27T13:35:46.954Z,297
2019-03-27T13:36:47.037Z,288
2019-03-27T13:37:47.028Z,280
2019-03-27T13:38:47.000Z,267
2019-03-27T13:39:46.994Z,259
2019-03-27T13:40:46.997Z,261
2019-03-27T13:41:47.001Z,264
2019-03-27T13:42:47.064Z,271
2019-03-27T13:43:47.045Z,278
2019-03-27T13:44:47.037Z,297
2019-03-27T13:45:46.964Z,311
2019-03-27T13:46:46.989Z,324
2019-03-27T13:47:46.999Z,331
2019-03-27T13:48:47.038Z,337
2019-03-27T13:49:47.040Z,332
2019-03-27T13:50:47.038Z,330
2019-03-27T13:51:47.044Z,318
2019-03-27T13:52:46.957Z,312
2019-03-27T13:53:47.043Z,313
2019-03-27T13:54:46.971Z,316
2019-03-27T13:55:46.979Z,312
2019-03-27T13:56:46.948Z,313
2019-03-27T13:57:46.949Z,326
2019-03-27T13:58:47.046Z,338
2019-03-27T13:59:46.949Z,354
2019-03-27T14:00:46.991Z,372
2019-03-27T14:01:46.956Z,395
2019-03-27T14:02:46.987Z,412
2019-03-27T14:03:46.962Z,446
2019-03-27T14:04:46.995Z,468
2019-03-27T14:05:47.052Z,457
2019-03-27T14:06:47.134Z,447
2019-03-27T14:07:47.065Z,429
2019-03-27T14:08:46.994Z,425
2019-03-27T14:09:47.066Z,420
2019-03-27T14:10:47.123Z,428
2019-03-27T14:11:47.062Z,459
2019-03-27T14:12:47.068Z,438
2019-03-27T14:13:47.009Z,438